Latest Weather Observations for Truscott

IDD60801

Issued at 6:35 pm CST Friday 25 April 2014 (issued every 30 minutes, with the page automatically refreshed every 10 minutes)

About weather observations | Map of weather stations | Latest weather observations for NT | Other Formats
Station Details ID: 001020 Name: TRUSCOTT Lat: -14.09 Lon: 126.39 Height: 51.0 m
Data from the previous 72 hours. | See also: Recent months at Truscott
Date/Time
CST
Temp
°C
App
Temp
°C
Dew
Point
Rel
Hum
%
Delta-T
°C
Wind Press
QNH
hPa
Press
MSL
hPa
Rain
since 9 am
mm
Dir
 
Spd
km/h
Gust
km/h
Spd
kts
Gust
kts
25/06:30pm 30.4 32.9 21.8 60 5.8 N 11 17 6 9 1007.5 - 0.0
25/06:00pm 31.7 33.9 20.3 50 7.6 N 9 13 5 7 1006.9 - 0.0
25/05:30pm 33.8 34.9 16.6 35 10.9 E 6 7 3 4 1006.5 - 0.0
25/05:00pm 33.7 34.6 16.5 35 10.9 ESE 7 11 4 6 1006.3 - 0.0
25/04:30pm 33.9 34.5 16.7 35 11.0 ENE 9 13 5 7 1006.2 1005.7 0.0
25/04:00pm 33.9 33.9 16.3 35 11.1 E 11 17 6 9 1006.3 - 0.0
25/03:30pm 33.9 35.0 18.0 39 10.3 E 9 15 5 8 1006.5 - 0.0
25/03:00pm 33.6 33.5 16.9 37 10.7 ENE 13 17 7 9 1006.7 - 0.0
25/02:30pm 33.6 33.3 17.3 37 10.5 E 15 20 8 11 1007.2 - 0.0
25/02:00pm 33.5 34.4 18.4 40 9.8 SE 11 19 6 10 1007.6 - 0.0
25/01:30pm 33.3 34.2 17.5 39 10.2 SE 9 13 5 7 1008.1 1007.6 0.0
25/01:00pm 32.9 33.1 16.7 38 10.3 ESE 11 17 6 9 1008.5 - 0.0
25/12:30pm 32.8 31.7 15.3 34 10.9 SSE 15 20 8 11 1009.1 - 0.0
25/12:00pm 33.0 32.5 16.8 38 10.3 S 15 22 8 12 1009.5 - 0.0
25/11:30am 32.3 32.5 18.5 44 9.0 SSW 15 22 8 12 1010.0 - 0.0
25/11:00am 31.9 32.4 19.2 47 8.3 SSW 15 20 8 11 1010.3 - 0.0
25/10:30am 31.2 32.7 20.5 53 7.1 SW 13 20 7 11 1010.6 1010.1 0.0
25/10:00am 30.0 31.9 21.4 60 5.8 SSW 13 19 7 10 1010.5 - 0.0
25/09:30am 29.1 30.9 21.1 62 5.3 SSW 13 17 7 9 1010.3 - 0.0
25/09:00am 28.3 30.7 21.6 67 4.5 SSW 11 17 6 9 1010.2 - 0.0
25/08:30am 27.2 30.1 21.7 72 3.7 S 9 15 5 8 1010.1 - 0.0
25/08:00am 25.7 28.6 21.8 79 2.6 S 9 13 5 7 1009.9 - 0.0
25/07:30am 25.0 27.8 22.3 85 1.8 S 11 13 6 7 1009.6 1009.1 0.0
25/07:00am 25.0 28.1 22.1 84 1.9 S 9 11 5 6 1009.4 - 0.0
25/06:30am 25.4 28.8 22.7 85 1.8 S 9 13 5 7 1009.0 - 0.0
25/06:00am 25.4 28.9 22.9 86 1.7 SSW 9 13 5 7 1008.7 - 0.0
25/05:00am 25.3 29.1 22.8 86 1.7 SSW 7 9 4 5 1008.4 - 0.0
25/04:30am 25.5 29.1 23.0 86 1.7 SSW 9 11 5 6 1008.2 1007.7 0.0
25/04:00am 25.5 29.3 23.4 88 1.4 SSW 9 11 5 6 1008.2 - 0.0
25/03:30am 25.4 29.3 23.6 90 1.2 SSW 9 11 5 6 1008.1 - 0.0
25/03:00am 25.3 29.5 23.5 90 1.2 SSW 7 9 4 5 1008.0 - 0.0
25/02:30am 24.6 30.4 23.9 96 0.5 CALM 0 0 0 0 1008.2 - 0.0
25/02:00am 24.7 30.5 24.0 96 0.5 CALM 0 0 0 0 1008.5 - 0.0
25/01:30am 24.6 30.3 23.7 95 0.6 SSE 0 0 0 0 1008.8 1008.3 0.0
25/01:00am 24.6 30.2 23.6 94 0.7 CALM 0 0 0 0 1009.1 - 0.0
25/12:30am 24.9 30.6 23.7 93 0.8 CALM 0 0 0 0 1009.5 - 0.0
25/12:00am 25.1 30.9 23.9 93 0.8 CALM 0 0 0 0 1009.6 - 0.0
 
Date/Time
CST
Temp
°C
App
Temp
°C
Dew
Point
Rel
Hum
%
Delta-T
°C
Wind Press
QNH
hPa
Press
MSL
hPa
Rain
since 9 am
mm
Dir
 
Spd
km/h
Gust
km/h
Spd
kts
Gust
kts
24/11:30pm 25.0 30.7 23.8 93 0.8 CALM 0 0 0 0 1009.7 - 0.0
24/11:00pm 25.5 30.2 23.9 91 1.1 ENE 6 7 3 4 1009.9 - 0.0
24/10:30pm 25.4 29.8 23.5 89 1.3 ENE 6 7 3 4 1009.9 1009.4 0.0
24/10:00pm 25.9 30.4 23.6 87 1.6 NE 6 7 3 4 1009.7 - 0.0
24/09:30pm 26.5 31.1 23.8 85 1.9 NNE 6 7 3 4 1009.5 - 0.0
24/09:00pm 26.3 30.5 23.2 83 2.1 N 6 7 3 4 1009.3 - 0.0
24/08:30pm 26.7 32.0 23.0 80 2.5 CALM 0 6 0 3 1008.8 - 0.0
24/08:00pm 27.3 31.0 22.3 74 3.4 N 6 7 3 4 1008.4 - 0.0
24/07:30pm 28.3 31.8 22.1 69 4.2 N 7 13 4 7 1007.9 1007.4 0.0
24/07:00pm 28.9 31.8 21.7 65 4.8 N 9 13 5 7 1007.7 - 0.0
24/06:30pm 29.5 31.9 22.2 65 4.9 NNE 13 20 7 11 1007.3 - 0.0
24/06:00pm 30.2 32.1 22.1 62 5.5 N 15 26 8 14 1007.1 - 0.0
24/05:30pm 30.3 32.0 21.7 60 5.8 N 15 24 8 13 1006.7 - 0.0
24/05:00pm 30.8 32.0 20.7 55 6.7 N 15 24 8 13 1006.4 - 0.0
24/04:30pm 31.3 31.5 19.3 49 7.9 N 17 24 9 13 1006.3 1005.8 0.0
24/04:00pm 32.7 31.9 18.1 42 9.4 N 19 22 10 12 1006.3 - 0.0
24/03:30pm 34.0 33.9 15.9 33 11.4 ENE 11 17 6 9 1006.4 - 0.0
24/03:00pm 33.9 33.4 15.8 33 11.4 NE 13 20 7 11 1006.6 - 0.0
24/02:30pm 33.5 33.2 16.4 36 10.8 E 13 20 7 11 1006.9 - 0.0
24/02:00pm 33.5 34.0 18.4 40 9.8 E 13 20 7 11 1007.3 - 0.0
24/01:30pm 33.4 32.3 16.3 36 10.8 E 17 20 9 11 1007.8 1007.3 0.0
24/01:00pm 33.3 32.4 15.8 35 11.0 ESE 15 20 8 11 1008.4 - 0.0
24/12:30pm 33.2 32.9 16.5 36 10.6 E 13 26 7 14 1008.8 - 0.0
24/12:00pm 33.0 32.4 14.6 33 11.3 E 11 19 6 10 1009.4 - 0.0
24/11:30am 32.6 33.2 16.8 38 10.0 SE 9 13 5 7 1010.1 - 0.0
24/11:00am 32.2 32.9 18.0 42 9.2 S 11 17 6 9 1010.4 - 0.0
24/10:30am 31.0 31.3 18.7 48 8.0 S 15 20 8 11 1010.6 1010.1 0.0
24/10:00am 29.8 31.1 19.2 53 6.9 SSW 11 17 6 9 1010.5 - 0.0
24/09:30am 28.9 30.2 20.9 62 5.3 S 15 20 8 11 1010.2 - 0.0
24/09:00am 27.4 29.5 21.7 71 3.8 SSW 13 17 7 9 1009.6 - 0.0
24/08:30am 26.6 28.8 21.8 75 3.2 SSW 13 19 7 10 1009.5 - 0.0
24/08:00am 25.5 27.7 21.8 80 2.5 SW 13 15 7 8 1009.3 - 0.0
24/07:30am 25.6 28.5 21.7 79 2.6 SW 9 15 5 8 1008.9 1008.4 0.0
24/07:00am 25.2 27.7 21.7 81 2.3 SW 11 15 6 8 1008.6 - 0.0
24/06:30am 25.5 27.9 22.2 82 2.2 SW 13 19 7 10 1008.4 - 0.0
24/06:00am 25.8 28.4 22.7 83 2.1 SSW 13 15 7 8 1008.4 - 0.0
24/05:30am 26.2 28.9 22.9 82 2.2 SSW 13 17 7 9 1008.2 - 0.0
24/05:00am 25.9 29.8 23.6 87 1.6 SSW 9 13 5 7 1008.3 - 0.0
24/04:30am 26.2 30.0 24.1 88 1.5 SW 11 15 6 8 1008.2 1007.7 0.0
24/04:00am 26.1 30.3 24.1 89 1.4 SW 9 11 5 6 1008.3 - 0.0
24/03:30am 26.4 30.7 24.2 88 1.5 SW 9 11 5 6 1008.3 - 0.0
24/03:00am 26.4 30.6 24.1 87 1.6 SW 9 11 5 6 1008.6 - 0.0
24/02:30am 26.8 30.6 23.5 82 2.3 SW 9 13 5 7 1009.0 - 0.0
24/02:00am 27.3 31.4 24.0 82 2.3 W 9 13 5 7 1009.4 - 0.0
24/01:30am 27.2 31.8 24.1 83 2.1 WSW 7 11 4 6 1009.9 1009.4 0.0
24/01:00am 26.6 31.4 24.1 86 1.7 W 6 7 3 4 1010.3 - 0.0
24/12:30am 25.3 30.6 23.0 87 1.6 CALM 0 0 0 0 1010.5 - 0.0
24/12:00am 25.7 31.1 23.2 86 1.7 CALM 0 0 0 0 1010.6 - 0.0
 
Date/Time
CST
Temp
°C
App
Temp
°C
Dew
Point
Rel
Hum
%
Delta-T
°C
Wind Press
QNH
hPa
Press
MSL
hPa
Rain
since 9 am
mm
Dir
 
Spd
km/h
Gust
km/h
Spd
kts
Gust
kts
23/11:30pm 25.6 30.3 22.7 84 2.0 WNW 2 7 1 4 1010.7 - 0.0
23/11:00pm 26.7 30.4 22.3 77 3.0 NW 6 7 3 4 1010.6 - 0.0
23/10:30pm 26.2 30.2 22.7 81 2.4 NNW 6 7 3 4 1010.8 1010.3 0.0
23/10:00pm 26.0 31.2 22.9 83 2.1 CALM 0 0 0 0 1010.8 - 0.0
23/09:30pm 26.2 30.1 22.5 80 2.5 N 6 6 3 3 1010.6 - 0.0
23/09:00pm 27.3 30.5 21.3 69 4.0 N 6 7 3 4 1010.2 - 0.0
23/08:30pm 28.1 31.2 21.4 67 4.5 N 7 11 4 6 1009.6 - 0.0
23/08:00pm 28.4 31.2 20.9 64 5.0 N 7 9 4 5 1009.1 - 0.0
23/07:30pm 28.6 30.9 20.6 62 5.3 N 9 13 5 7 1008.4 1007.9 0.0
23/07:00pm 29.2 31.5 20.6 59 5.7 N 9 15 5 8 1008.1 - 0.0
23/06:30pm 30.2 31.0 19.9 54 6.8 N 15 22 8 12 1007.6 - 0.0
23/06:00pm 30.9 31.6 20.5 54 6.9 NNE 17 22 9 12 1007.1 - 0.0
23/05:30pm 33.1 34.0 16.5 37 10.5 NNW 7 9 4 5 1006.8 - 0.0
23/05:00pm 33.9 35.1 15.8 33 11.4 ENE 4 11 2 6 1006.7 - 0.0
23/04:30pm 34.3 33.6 13.2 28 12.8 SSE 9 15 5 8 1006.5 1006.0 0.0
23/04:00pm 34.3 34.2 13.2 28 12.8 SE 6 13 3 7 1006.7 - 0.0
23/03:30pm 34.2 33.8 14.1 29 12.3 SE 9 17 5 9 1006.9 - 0.0
23/03:00pm 33.9 33.4 13.9 30 12.2 ESE 9 15 5 8 1007.1 - 0.0
23/02:30pm 33.9 33.1 12.8 28 12.7 SE 9 17 5 9 1007.5 - 0.0
23/02:00pm 33.8 32.9 13.8 30 12.2 SE 11 17 6 9 1008.0 - 0.0
23/01:30pm 33.8 32.7 14.3 31 12.0 SSE 13 22 7 12 1008.5 1008.0 0.0
23/01:00pm 33.3 32.8 15.8 35 11.0 SSE 13 17 7 9 1009.1 - 0.0
23/12:30pm 33.3 32.6 15.3 34 11.2 SE 13 24 7 13 1009.6 - 0.0
23/12:00pm 32.8 32.4 16.2 37 10.5 SE 13 20 7 11 1010.1 - 0.0
23/11:30am 32.5 33.0 18.3 43 9.2 S 13 20 7 11 1010.4 - 0.0
23/11:00am 32.1 33.2 19.7 48 8.2 SSW 13 19 7 10 1011.0 - 0.0
23/10:30am 31.2 32.4 19.9 51 7.5 S 13 19 7 10 1011.1 1010.6 0.0
23/10:00am 30.2 32.4 21.8 60 5.7 SSW 13 17 7 9 1011.1 - 0.0
23/09:30am 29.2 32.3 22.9 69 4.3 SW 11 17 6 9 1010.9 - 0.0
23/09:00am 28.2 31.3 22.9 73 3.6 SSW 11 17 6 9 1010.7 - 0.0
23/08:30am 27.5 30.1 22.7 75 3.3 SSW 13 15 7 8 1010.6 - 0.0
23/08:00am 26.4 28.7 22.0 77 3.0 SSW 13 15 7 8 1010.3 - 0.0
23/07:30am 25.8 28.1 22.1 80 2.5 SSW 13 15 7 8 1010.1 1009.6 0.0
23/07:00am 25.5 28.1 22.0 81 2.3 SSW 11 15 6 8 1009.8 - 0.0
23/06:30am 25.8 28.5 22.1 80 2.5 SSW 11 15 6 8 1009.6 - 0.0
23/06:00am 25.6 28.4 22.3 82 2.2 SSW 11 15 6 8 1009.5 - 0.0
23/05:30am 23.0 26.7 22.5 97 0.3 SSW 7 9 4 5 1009.5 - 0.0
23/05:00am 23.1 26.8 22.3 95 0.5 S 6 6 3 3 1009.6 - 0.0
23/04:30am 23.5 27.7 21.8 90 1.1 SSW 2 7 1 4 1009.7 1009.2 0.0
23/04:00am 25.6 29.5 22.9 85 1.8 SSW 7 11 4 6 1009.6 - 0.0
23/03:30am 25.6 29.0 22.7 84 2.0 SSW 9 11 5 6 1009.8 - 0.0
23/03:00am 24.5 27.7 21.6 84 1.9 SSW 7 9 4 5 1010.2 - 0.0
23/02:30am 25.8 29.4 22.3 81 2.4 SW 7 11 4 6 1010.6 - 0.0
23/02:00am 24.3 27.8 21.8 86 1.7 SW 6 7 3 4 1010.9 - 0.0
23/01:30am 24.5 29.2 22.0 86 1.7 CALM 0 6 0 3 1011.1 1010.6 0.0
23/01:00am 24.7 29.4 22.0 85 1.8 CALM 0 0 0 0 1011.5 - 0.0
23/12:30am 25.3 29.2 21.8 81 2.3 SW 4 7 2 4 1011.7 - 0.0
23/12:00am 26.1 30.7 21.7 77 2.9 CALM 0 0 0 0 1011.8 - 0.0
 
Date/Time
CST
Temp
°C
App
Temp
°C
Dew
Point
Rel
Hum
%
Delta-T
°C
Wind Press
QNH
hPa
Press
MSL
hPa
Rain
since 9 am
mm
Dir
 
Spd
km/h
Gust
km/h
Spd
kts
Gust
kts
22/11:30pm 25.8 29.8 22.1 80 2.5 SW 4 7 2 4 1011.8 - 0.0
22/11:00pm 25.6 30.4 22.1 81 2.3 CALM 0 0 0 0 1011.7 - 0.0
22/10:30pm 26.3 30.9 21.7 76 3.1 CALM 0 0 0 0 1011.6 1011.1 0.0
22/10:00pm 26.6 31.2 21.8 75 3.2 CALM 0 0 0 0 1011.5 - 0.0
22/09:30pm 27.4 30.8 21.0 68 4.2 ENE 4 7 2 4 1011.2 - 0.0
22/09:00pm 27.5 30.2 20.3 65 4.7 ENE 6 7 3 4 1010.7 - 0.0
22/08:30pm 28.3 30.5 19.5 59 5.7 ENE 7 9 4 5 1010.2 - 0.0

Other Formats:

Comma delimited format used in spreadsheet applications
http://www.bom.gov.au/fwo/IDD60801/IDD60801.95101.axf

JavaScript Object Notation format (JSON) in row-major order
http://www.bom.gov.au/fwo/IDD60801/IDD60801.95101.json